sensor_id;sensor_type;location;lat;lon;timestamp;P1;durP1;ratioP1;P2;durP2;ratioP2
24677;SDS011;12800;53.094;8.778;2023-04-24T00:00:36;1.37;;;1.27;;
24677;SDS011;12800;53.094;8.778;2023-04-24T00:03:05;2.10;;;1.20;;
24677;SDS011;12800;53.094;8.778;2023-04-24T00:05:31;1.97;;;1.30;;
24677;SDS011;12800;53.094;8.778;2023-04-24T00:07:59;1.40;;;1.30;;
24677;SDS011;12800;53.094;8.778;2023-04-24T00:10:25;24.40;;;16.97;;
24677;SDS011;12800;53.094;8.778;2023-04-24T00:12:50;5.50;;;3.60;;
24677;SDS011;12800;53.094;8.778;2023-04-24T00:15:16;2.53;;;1.40;;
24677;SDS011;12800;53.094;8.778;2023-04-24T00:17:41;2.00;;;1.43;;
24677;SDS011;12800;53.094;8.778;2023-04-24T00:20:07;3.07;;;1.00;;
24677;SDS011;12800;53.094;8.778;2023-04-24T00:22:35;1.67;;;1.17;;
24677;SDS011;12800;53.094;8.778;2023-04-24T00:25:00;1.63;;;1.00;;
24677;SDS011;12800;53.094;8.778;2023-04-24T00:27:26;1.27;;;1.17;;
24677;SDS011;12800;53.094;8.778;2023-04-24T00:29:52;1.93;;;1.20;;
24677;SDS011;12800;53.094;8.778;2023-04-24T00:32:17;1.97;;;1.37;;
24677;SDS011;12800;53.094;8.778;2023-04-24T00:34:43;2.13;;;1.50;;
24677;SDS011;12800;53.094;8.778;2023-04-24T00:37:09;1.37;;;1.20;;
24677;SDS011;12800;53.094;8.778;2023-04-24T00:39:35;1.03;;;1.00;;
24677;SDS011;12800;53.094;8.778;2023-04-24T00:42:00;1.30;;;1.20;;
24677;SDS011;12800;53.094;8.778;2023-04-24T00:44:26;1.07;;;1.00;;
24677;SDS011;12800;53.094;8.778;2023-04-24T00:46:53;1.73;;;0.87;;
24677;SDS011;12800;53.094;8.778;2023-04-24T00:49:20;1.17;;;0.80;;
24677;SDS011;12800;53.094;8.778;2023-04-24T00:51:47;0.70;;;0.60;;
24677;SDS011;12800;53.094;8.778;2023-04-24T00:54:14;1.60;;;1.07;;
24677;SDS011;12800;53.094;8.778;2023-04-24T00:56:40;0.70;;;0.70;;
24677;SDS011;12800;53.094;8.778;2023-04-24T00:59:07;1.30;;;0.90;;
24677;SDS011;12800;53.094;8.778;2023-04-24T01:01:33;0.80;;;0.70;;
24677;SDS011;12800;53.094;8.778;2023-04-24T01:04:00;0.80;;;0.80;;
24677;SDS011;12800;53.094;8.778;2023-04-24T01:06:29;0.93;;;0.80;;
24677;SDS011;12800;53.094;8.778;2023-04-24T01:08:56;1.10;;;0.83;;
24677;SDS011;12800;53.094;8.778;2023-04-24T01:11:23;1.47;;;0.90;;
24677;SDS011;12800;53.094;8.778;2023-04-24T01:13:50;1.00;;;0.83;;
24677;SDS011;12800;53.094;8.778;2023-04-24T01:16:16;0.80;;;0.80;;
24677;SDS011;12800;53.094;8.778;2023-04-24T01:18:42;0.70;;;0.70;;
24677;SDS011;12800;53.094;8.778;2023-04-24T01:21:09;2.20;;;1.17;;
24677;SDS011;12800;53.094;8.778;2023-04-24T01:23:35;0.93;;;0.87;;
24677;SDS011;12800;53.094;8.778;2023-04-24T01:26:01;0.90;;;0.80;;
24677;SDS011;12800;53.094;8.778;2023-04-24T01:28:27;1.07;;;0.90;;
24677;SDS011;12800;53.094;8.778;2023-04-24T01:30:53;1.10;;;1.00;;
24677;SDS011;12800;53.094;8.778;2023-04-24T01:33:20;1.07;;;1.00;;
24677;SDS011;12800;53.094;8.778;2023-04-24T01:35:47;1.20;;;1.10;;
24677;SDS011;12800;53.094;8.778;2023-04-24T01:38:13;0.80;;;0.80;;
24677;SDS011;12800;53.094;8.778;2023-04-24T01:40:38;1.57;;;1.10;;
24677;SDS011;12800;53.094;8.778;2023-04-24T01:43:04;1.37;;;1.00;;
24677;SDS011;12800;53.094;8.778;2023-04-24T01:45:30;2.80;;;1.23;;
24677;SDS011;12800;53.094;8.778;2023-04-24T01:47:56;1.13;;;0.90;;
24677;SDS011;12800;53.094;8.778;2023-04-24T01:50:21;0.60;;;0.60;;
24677;SDS011;12800;53.094;8.778;2023-04-24T01:52:47;1.77;;;1.10;;
24677;SDS011;12800;53.094;8.778;2023-04-24T01:55:13;1.10;;;1.00;;
24677;SDS011;12800;53.094;8.778;2023-04-24T01:57:38;1.37;;;0.97;;
24677;SDS011;12800;53.094;8.778;2023-04-24T02:00:05;2.40;;;0.83;;
24677;SDS011;12800;53.094;8.778;2023-04-24T02:02:32;1.67;;;1.37;;
24677;SDS011;12800;53.094;8.778;2023-04-24T02:04:57;2.30;;;1.00;;
24677;SDS011;12800;53.094;8.778;2023-04-24T02:07:23;1.00;;;1.00;;
24677;SDS011;12800;53.094;8.778;2023-04-24T02:09:49;2.03;;;1.23;;
24677;SDS011;12800;53.094;8.778;2023-04-24T02:12:15;1.07;;;1.00;;
24677;SDS011;12800;53.094;8.778;2023-04-24T02:14:42;1.30;;;1.20;;
24677;SDS011;12800;53.094;8.778;2023-04-24T02:17:08;1.63;;;1.20;;
24677;SDS011;12800;53.094;8.778;2023-04-24T02:19:34;1.10;;;1.00;;
24677;SDS011;12800;53.094;8.778;2023-04-24T02:21:59;2.20;;;1.27;;
24677;SDS011;12800;53.094;8.778;2023-04-24T02:24:25;1.70;;;1.20;;
24677;SDS011;12800;53.094;8.778;2023-04-24T02:26:51;1.47;;;1.10;;
24677;SDS011;12800;53.094;8.778;2023-04-24T02:29:16;2.20;;;1.20;;
24677;SDS011;12800;53.094;8.778;2023-04-24T02:31:42;2.33;;;1.47;;
24677;SDS011;12800;53.094;8.778;2023-04-24T02:34:07;1.70;;;1.60;;
24677;SDS011;12800;53.094;8.778;2023-04-24T02:36:33;2.20;;;1.60;;
24677;SDS011;12800;53.094;8.778;2023-04-24T02:38:58;1.70;;;1.50;;
24677;SDS011;12800;53.094;8.778;2023-04-24T02:41:25;1.90;;;1.60;;
24677;SDS011;12800;53.094;8.778;2023-04-24T02:43:56;2.50;;;1.87;;
24677;SDS011;12800;53.094;8.778;2023-04-24T02:46:22;2.00;;;1.80;;
24677;SDS011;12800;53.094;8.778;2023-04-24T02:48:48;1.87;;;1.77;;
24677;SDS011;12800;53.094;8.778;2023-04-24T02:51:13;1.70;;;1.60;;
24677;SDS011;12800;53.094;8.778;2023-04-24T02:53:39;2.83;;;1.87;;
24677;SDS011;12800;53.094;8.778;2023-04-24T02:56:05;2.17;;;1.77;;
24677;SDS011;12800;53.094;8.778;2023-04-24T02:58:30;2.63;;;1.90;;
24677;SDS011;12800;53.094;8.778;2023-04-24T03:00:56;3.60;;;2.33;;
24677;SDS011;12800;53.094;8.778;2023-04-24T03:03:22;2.40;;;2.20;;
24677;SDS011;12800;53.094;8.778;2023-04-24T03:05:47;3.10;;;2.27;;
24677;SDS011;12800;53.094;8.778;2023-04-24T03:08:13;3.07;;;1.93;;
24677;SDS011;12800;53.094;8.778;2023-04-24T03:10:41;2.93;;;2.33;;
24677;SDS011;12800;53.094;8.778;2023-04-24T03:13:07;2.27;;;2.07;;
24677;SDS011;12800;53.094;8.778;2023-04-24T03:15:32;2.73;;;2.00;;
24677;SDS011;12800;53.094;8.778;2023-04-24T03:17:58;2.93;;;2.73;;
24677;SDS011;12800;53.094;8.778;2023-04-24T03:20:25;3.40;;;1.80;;
24677;SDS011;12800;53.094;8.778;2023-04-24T03:22:51;2.10;;;1.90;;
24677;SDS011;12800;53.094;8.778;2023-04-24T03:25:16;2.27;;;1.90;;
24677;SDS011;12800;53.094;8.778;2023-04-24T03:27:42;2.10;;;1.80;;
24677;SDS011;12800;53.094;8.778;2023-04-24T03:30:08;1.67;;;1.57;;
24677;SDS011;12800;53.094;8.778;2023-04-24T03:32:34;2.67;;;2.33;;
24677;SDS011;12800;53.094;8.778;2023-04-24T03:34:59;2.20;;;2.00;;
24677;SDS011;12800;53.094;8.778;2023-04-24T03:37:25;2.80;;;2.20;;
24677;SDS011;12800;53.094;8.778;2023-04-24T03:39:51;4.30;;;2.13;;
24677;SDS011;12800;53.094;8.778;2023-04-24T03:42:17;2.93;;;2.03;;
24677;SDS011;12800;53.094;8.778;2023-04-24T03:44:43;2.60;;;1.93;;
24677;SDS011;12800;53.094;8.778;2023-04-24T03:47:08;3.87;;;2.00;;
24677;SDS011;12800;53.094;8.778;2023-04-24T03:49:34;2.00;;;1.90;;
24677;SDS011;12800;53.094;8.778;2023-04-24T03:51:59;2.00;;;1.90;;
24677;SDS011;12800;53.094;8.778;2023-04-24T03:54:25;3.63;;;2.10;;
24677;SDS011;12800;53.094;8.778;2023-04-24T03:56:51;3.93;;;1.90;;
24677;SDS011;12800;53.094;8.778;2023-04-24T03:59:17;2.40;;;1.93;;
24677;SDS011;12800;53.094;8.778;2023-04-24T04:01:43;2.10;;;1.90;;
24677;SDS011;12800;53.094;8.778;2023-04-24T04:04:08;3.50;;;1.80;;
24677;SDS011;12800;53.094;8.778;2023-04-24T04:06:34;3.47;;;2.20;;
24677;SDS011;12800;53.094;8.778;2023-04-24T04:09:01;1.93;;;1.83;;
24677;SDS011;12800;53.094;8.778;2023-04-24T04:11:26;3.00;;;1.70;;
24677;SDS011;12800;53.094;8.778;2023-04-24T04:13:52;1.90;;;1.43;;
24677;SDS011;12800;53.094;8.778;2023-04-24T04:16:18;1.77;;;1.67;;
24677;SDS011;12800;53.094;8.778;2023-04-24T04:18:43;3.40;;;1.80;;
24677;SDS011;12800;53.094;8.778;2023-04-24T04:21:10;2.00;;;1.80;;
24677;SDS011;12800;53.094;8.778;2023-04-24T04:23:35;1.83;;;1.63;;
24677;SDS011;12800;53.094;8.778;2023-04-24T04:26:01;2.47;;;1.70;;
24677;SDS011;12800;53.094;8.778;2023-04-24T04:28:28;3.10;;;1.70;;
24677;SDS011;12800;53.094;8.778;2023-04-24T04:30:55;1.63;;;1.53;;
24677;SDS011;12800;53.094;8.778;2023-04-24T04:33:22;1.90;;;1.80;;
24677;SDS011;12800;53.094;8.778;2023-04-24T04:35:48;2.27;;;1.97;;
24677;SDS011;12800;53.094;8.778;2023-04-24T04:38:14;2.10;;;1.90;;
24677;SDS011;12800;53.094;8.778;2023-04-24T04:40:41;2.40;;;2.10;;
24677;SDS011;12800;53.094;8.778;2023-04-24T04:43:07;3.90;;;2.00;;
24677;SDS011;12800;53.094;8.778;2023-04-24T04:45:33;2.00;;;1.80;;
24677;SDS011;12800;53.094;8.778;2023-04-24T04:47:59;2.50;;;1.93;;
24677;SDS011;12800;53.094;8.778;2023-04-24T04:50:27;2.80;;;1.80;;
24677;SDS011;12800;53.094;8.778;2023-04-24T04:52:52;1.90;;;1.73;;
24677;SDS011;12800;53.094;8.778;2023-04-24T04:55:18;2.10;;;1.90;;
24677;SDS011;12800;53.094;8.778;2023-04-24T04:57:45;3.83;;;2.30;;
24677;SDS011;12800;53.094;8.778;2023-04-24T05:00:11;2.60;;;2.17;;
24677;SDS011;12800;53.094;8.778;2023-04-24T05:02:37;1.57;;;1.47;;
24677;SDS011;12800;53.094;8.778;2023-04-24T05:05:03;3.20;;;2.20;;
24677;SDS011;12800;53.094;8.778;2023-04-24T05:07:31;2.10;;;1.83;;
24677;SDS011;12800;53.094;8.778;2023-04-24T05:09:56;2.53;;;2.00;;
24677;SDS011;12800;53.094;8.778;2023-04-24T05:12:22;2.20;;;1.77;;
24677;SDS011;12800;53.094;8.778;2023-04-24T05:14:47;4.03;;;2.03;;
24677;SDS011;12800;53.094;8.778;2023-04-24T05:17:13;2.53;;;2.00;;
24677;SDS011;12800;53.094;8.778;2023-04-24T05:19:40;2.87;;;1.90;;
24677;SDS011;12800;53.094;8.778;2023-04-24T05:22:05;2.77;;;1.73;;
24677;SDS011;12800;53.094;8.778;2023-04-24T05:24:35;3.13;;;1.80;;
24677;SDS011;12800;53.094;8.778;2023-04-24T05:27:01;3.20;;;2.10;;
24677;SDS011;12800;53.094;8.778;2023-04-24T05:29:27;4.53;;;2.73;;
24677;SDS011;12800;53.094;8.778;2023-04-24T05:31:55;1.67;;;1.47;;
24677;SDS011;12800;53.094;8.778;2023-04-24T05:34:21;2.47;;;2.00;;
24677;SDS011;12800;53.094;8.778;2023-04-24T05:36:47;2.47;;;1.97;;
24677;SDS011;12800;53.094;8.778;2023-04-24T05:39:13;2.27;;;2.07;;
24677;SDS011;12800;53.094;8.778;2023-04-24T05:41:39;2.37;;;2.17;;
24677;SDS011;12800;53.094;8.778;2023-04-24T05:44:05;2.70;;;2.30;;
24677;SDS011;12800;53.094;8.778;2023-04-24T05:46:31;3.30;;;2.80;;
24677;SDS011;12800;53.094;8.778;2023-04-24T05:48:57;3.43;;;2.80;;
24677;SDS011;12800;53.094;8.778;2023-04-24T05:51:23;3.13;;;2.30;;
24677;SDS011;12800;53.094;8.778;2023-04-24T05:53:48;4.53;;;2.77;;
24677;SDS011;12800;53.094;8.778;2023-04-24T05:56:14;3.05;;;2.83;;
24677;SDS011;12800;53.094;8.778;2023-04-24T05:58:40;3.40;;;2.70;;
24677;SDS011;12800;53.094;8.778;2023-04-24T06:01:06;3.08;;;2.78;;
24677;SDS011;12800;53.094;8.778;2023-04-24T06:03:32;3.87;;;2.93;;
24677;SDS011;12800;53.094;8.778;2023-04-24T06:05:57;3.07;;;2.43;;
24677;SDS011;12800;53.094;8.778;2023-04-24T06:08:23;2.65;;;2.45;;
24677;SDS011;12800;53.094;8.778;2023-04-24T06:10:49;2.72;;;2.53;;
24677;SDS011;12800;53.094;8.778;2023-04-24T06:13:14;5.40;;;3.78;;
24677;SDS011;12800;53.094;8.778;2023-04-24T06:15:40;4.17;;;3.33;;
24677;SDS011;12800;53.094;8.778;2023-04-24T06:18:06;5.70;;;3.80;;
24677;SDS011;12800;53.094;8.778;2023-04-24T06:20:32;4.65;;;3.97;;
24677;SDS011;12800;53.094;8.778;2023-04-24T06:22:58;4.28;;;3.88;;
24677;SDS011;12800;53.094;8.778;2023-04-24T06:25:24;5.20;;;3.97;;
24677;SDS011;12800;53.094;8.778;2023-04-24T06:27:51;4.63;;;4.00;;
24677;SDS011;12800;53.094;8.778;2023-04-24T06:30:17;4.93;;;4.07;;
24677;SDS011;12800;53.094;8.778;2023-04-24T06:32:43;5.10;;;4.60;;
24677;SDS011;12800;53.094;8.778;2023-04-24T06:35:08;6.55;;;4.60;;
24677;SDS011;12800;53.094;8.778;2023-04-24T06:37:34;5.25;;;4.28;;
24677;SDS011;12800;53.094;8.778;2023-04-24T06:40:00;5.25;;;4.15;;
24677;SDS011;12800;53.094;8.778;2023-04-24T06:42:26;4.65;;;4.20;;
24677;SDS011;12800;53.094;8.778;2023-04-24T06:44:52;10.93;;;4.82;;
24677;SDS011;12800;53.094;8.778;2023-04-24T06:47:17;6.35;;;4.78;;
24677;SDS011;12800;53.094;8.778;2023-04-24T06:49:43;6.73;;;5.20;;
24677;SDS011;12800;53.094;8.778;2023-04-24T06:52:09;6.53;;;5.10;;
24677;SDS011;12800;53.094;8.778;2023-04-24T06:54:34;5.72;;;5.10;;
24677;SDS011;12800;53.094;8.778;2023-04-24T06:57:00;6.90;;;5.68;;
24677;SDS011;12800;53.094;8.778;2023-04-24T06:59:27;10.13;;;6.10;;
24677;SDS011;12800;53.094;8.778;2023-04-24T07:01:53;7.40;;;5.80;;
24677;SDS011;12800;53.094;8.778;2023-04-24T07:04:20;9.48;;;5.82;;
24677;SDS011;12800;53.094;8.778;2023-04-24T07:06:45;7.63;;;6.43;;
24677;SDS011;12800;53.094;8.778;2023-04-24T07:09:12;8.60;;;6.47;;
24677;SDS011;12800;53.094;8.778;2023-04-24T07:11:42;9.98;;;6.63;;
24677;SDS011;12800;53.094;8.778;2023-04-24T07:14:07;6.95;;;6.35;;
24677;SDS011;12800;53.094;8.778;2023-04-24T07:16:33;7.37;;;6.30;;
24677;SDS011;12800;53.094;8.778;2023-04-24T07:18:59;7.90;;;7.10;;
24677;SDS011;12800;53.094;8.778;2023-04-24T07:21:25;9.10;;;6.77;;
24677;SDS011;12800;53.094;8.778;2023-04-24T07:23:50;7.40;;;6.35;;
24677;SDS011;12800;53.094;8.778;2023-04-24T07:26:16;8.03;;;6.67;;
24677;SDS011;12800;53.094;8.778;2023-04-24T07:28:42;6.90;;;6.30;;
24677;SDS011;12800;53.094;8.778;2023-04-24T07:31:08;6.57;;;5.80;;
24677;SDS011;12800;53.094;8.778;2023-04-24T07:33:33;7.95;;;6.38;;
24677;SDS011;12800;53.094;8.778;2023-04-24T07:36:01;26.65;;;18.15;;
24677;SDS011;12800;53.094;8.778;2023-04-24T07:38:26;9.25;;;7.53;;
24677;SDS011;12800;53.094;8.778;2023-04-24T07:40:54;7.70;;;5.97;;
24677;SDS011;12800;53.094;8.778;2023-04-24T07:43:20;9.30;;;6.47;;
24677;SDS011;12800;53.094;8.778;2023-04-24T07:45:46;5.93;;;5.28;;
24677;SDS011;12800;53.094;8.778;2023-04-24T07:48:12;7.13;;;4.97;;
24677;SDS011;12800;53.094;8.778;2023-04-24T07:50:41;6.95;;;5.07;;
24677;SDS011;12800;53.094;8.778;2023-04-24T07:53:07;6.63;;;5.72;;
24677;SDS011;12800;53.094;8.778;2023-04-24T07:55:32;6.18;;;5.57;;
24677;SDS011;12800;53.094;8.778;2023-04-24T07:57:58;6.82;;;4.95;;
24677;SDS011;12800;53.094;8.778;2023-04-24T08:00:24;4.85;;;4.38;;
24677;SDS011;12800;53.094;8.778;2023-04-24T08:02:50;6.53;;;5.30;;
24677;SDS011;12800;53.094;8.778;2023-04-24T08:05:15;5.53;;;4.57;;
24677;SDS011;12800;53.094;8.778;2023-04-24T08:07:41;5.47;;;4.78;;
24677;SDS011;12800;53.094;8.778;2023-04-24T08:10:11;5.75;;;5.22;;
24677;SDS011;12800;53.094;8.778;2023-04-24T08:12:37;7.63;;;5.40;;
24677;SDS011;12800;53.094;8.778;2023-04-24T08:15:02;8.65;;;5.13;;
24677;SDS011;12800;53.094;8.778;2023-04-24T08:17:29;7.00;;;4.97;;
24677;SDS011;12800;53.094;8.778;2023-04-24T08:19:55;7.68;;;5.22;;
24677;SDS011;12800;53.094;8.778;2023-04-24T08:22:26;5.60;;;4.97;;
24677;SDS011;12800;53.094;8.778;2023-04-24T08:24:54;8.40;;;5.78;;
24677;SDS011;12800;53.094;8.778;2023-04-24T08:27:21;6.70;;;5.57;;
24677;SDS011;12800;53.094;8.778;2023-04-24T08:29:48;6.95;;;5.78;;
24677;SDS011;12800;53.094;8.778;2023-04-24T08:32:14;7.72;;;5.15;;
24677;SDS011;12800;53.094;8.778;2023-04-24T08:34:39;6.75;;;5.78;;
24677;SDS011;12800;53.094;8.778;2023-04-24T08:37:05;7.57;;;5.57;;
24677;SDS011;12800;53.094;8.778;2023-04-24T08:39:31;6.35;;;5.68;;
24677;SDS011;12800;53.094;8.778;2023-04-24T08:41:56;6.55;;;5.50;;
24677;SDS011;12800;53.094;8.778;2023-04-24T08:44:30;7.93;;;5.53;;
24677;SDS011;12800;53.094;8.778;2023-04-24T08:47:01;8.18;;;6.22;;
24677;SDS011;12800;53.094;8.778;2023-04-24T08:49:28;8.70;;;6.00;;
24677;SDS011;12800;53.094;8.778;2023-04-24T08:51:54;19.98;;;14.98;;
24677;SDS011;12800;53.094;8.778;2023-04-24T08:54:20;13.38;;;9.32;;
24677;SDS011;12800;53.094;8.778;2023-04-24T08:56:47;8.18;;;5.90;;
24677;SDS011;12800;53.094;8.778;2023-04-24T08:59:14;6.57;;;5.35;;
24677;SDS011;12800;53.094;8.778;2023-04-24T09:01:40;7.00;;;5.60;;
24677;SDS011;12800;53.094;8.778;2023-04-24T09:04:07;8.38;;;6.00;;
24677;SDS011;12800;53.094;8.778;2023-04-24T09:06:35;8.30;;;6.78;;
24677;SDS011;12800;53.094;8.778;2023-04-24T09:09:01;8.32;;;6.68;;
24677;SDS011;12800;53.094;8.778;2023-04-24T09:11:29;6.88;;;6.18;;
24677;SDS011;12800;53.094;8.778;2023-04-24T09:13:56;8.68;;;6.85;;
24677;SDS011;12800;53.094;8.778;2023-04-24T09:16:22;9.00;;;7.15;;
24677;SDS011;12800;53.094;8.778;2023-04-24T09:18:51;7.40;;;6.53;;
24677;SDS011;12800;53.094;8.778;2023-04-24T09:21:16;9.25;;;7.30;;
24677;SDS011;12800;53.094;8.778;2023-04-24T09:23:42;8.88;;;7.47;;
24677;SDS011;12800;53.094;8.778;2023-04-24T09:26:08;11.57;;;8.05;;
24677;SDS011;12800;53.094;8.778;2023-04-24T09:28:35;11.98;;;9.15;;
24677;SDS011;12800;53.094;8.778;2023-04-24T09:31:13;10.90;;;8.45;;
24677;SDS011;12800;53.094;8.778;2023-04-24T09:34:04;9.65;;;8.38;;
24677;SDS011;12800;53.094;8.778;2023-04-24T09:36:41;11.35;;;9.13;;
24677;SDS011;12800;53.094;8.778;2023-04-24T09:39:11;12.30;;;9.27;;
24677;SDS011;12800;53.094;8.778;2023-04-24T09:41:48;11.13;;;8.70;;
24677;SDS011;12800;53.094;8.778;2023-04-24T09:44:21;11.30;;;8.90;;
24677;SDS011;12800;53.094;8.778;2023-04-24T09:46:52;11.30;;;8.95;;
24677;SDS011;12800;53.094;8.778;2023-04-24T09:49:25;9.50;;;8.50;;
24677;SDS011;12800;53.094;8.778;2023-04-24T09:51:52;10.85;;;8.60;;
24677;SDS011;12800;53.094;8.778;2023-04-24T09:54:35;11.30;;;9.25;;
24677;SDS011;12800;53.094;8.778;2023-04-24T09:57:04;9.18;;;8.27;;
24677;SDS011;12800;53.094;8.778;2023-04-24T09:59:32;8.77;;;7.80;;
24677;SDS011;12800;53.094;8.778;2023-04-24T10:01:58;10.50;;;8.40;;
24677;SDS011;12800;53.094;8.778;2023-04-24T10:04:25;9.02;;;8.10;;
24677;SDS011;12800;53.094;8.778;2023-04-24T10:06:55;11.93;;;9.40;;
24677;SDS011;12800;53.094;8.778;2023-04-24T10:09:22;9.73;;;8.65;;
24677;SDS011;12800;53.094;8.778;2023-04-24T10:11:50;11.02;;;8.73;;
24677;SDS011;12800;53.094;8.778;2023-04-24T10:14:19;11.80;;;8.82;;
24677;SDS011;12800;53.094;8.778;2023-04-24T10:16:46;15.05;;;10.65;;
24677;SDS011;12800;53.094;8.778;2023-04-24T10:19:13;13.57;;;10.50;;
24677;SDS011;12800;53.094;8.778;2023-04-24T10:21:40;9.07;;;8.10;;
24677;SDS011;12800;53.094;8.778;2023-04-24T10:24:10;9.60;;;7.63;;
24677;SDS011;12800;53.094;8.778;2023-04-24T10:26:41;8.70;;;7.18;;
24677;SDS011;12800;53.094;8.778;2023-04-24T10:29:08;10.95;;;7.60;;
24677;SDS011;12800;53.094;8.778;2023-04-24T10:31:37;7.90;;;6.80;;
24677;SDS011;12800;53.094;8.778;2023-04-24T10:34:07;7.55;;;6.75;;
24677;SDS011;12800;53.094;8.778;2023-04-24T10:36:34;10.07;;;6.57;;
24677;SDS011;12800;53.094;8.778;2023-04-24T10:39:02;30.07;;;21.37;;
24677;SDS011;12800;53.094;8.778;2023-04-24T10:41:31;27.77;;;20.02;;
24677;SDS011;12800;53.094;8.778;2023-04-24T10:44:10;9.15;;;6.72;;
24677;SDS011;12800;53.094;8.778;2023-04-24T10:46:37;8.55;;;6.65;;
24677;SDS011;12800;53.094;8.778;2023-04-24T10:49:07;8.48;;;6.00;;
24677;SDS011;12800;53.094;8.778;2023-04-24T10:54:21;6.60;;;5.90;;
24677;SDS011;12800;53.094;8.778;2023-04-24T10:56:50;7.03;;;6.32;;
24677;SDS011;12800;53.094;8.778;2023-04-24T10:59:29;6.72;;;6.10;;
24677;SDS011;12800;53.094;8.778;2023-04-24T11:02:00;6.20;;;5.60;;
24677;SDS011;12800;53.094;8.778;2023-04-24T11:04:29;6.82;;;6.20;;
24677;SDS011;12800;53.094;8.778;2023-04-24T11:06:56;6.28;;;5.68;;
24677;SDS011;12800;53.094;8.778;2023-04-24T11:09:22;6.05;;;5.43;;
24677;SDS011;12800;53.094;8.778;2023-04-24T11:11:53;6.95;;;6.07;;
24677;SDS011;12800;53.094;8.778;2023-04-24T11:14:29;6.60;;;6.00;;
24677;SDS011;12800;53.094;8.778;2023-04-24T11:16:54;5.88;;;5.28;;
24677;SDS011;12800;53.094;8.778;2023-04-24T11:22:03;5.90;;;5.32;;
24677;SDS011;12800;53.094;8.778;2023-04-24T11:29:49;6.38;;;5.75;;
24677;SDS011;12800;53.094;8.778;2023-04-24T11:32:28;6.25;;;5.15;;
24677;SDS011;12800;53.094;8.778;2023-04-24T11:35:04;6.65;;;5.07;;
24677;SDS011;12800;53.094;8.778;2023-04-24T11:40:05;8.73;;;7.60;;
24677;SDS011;12800;53.094;8.778;2023-04-24T11:42:40;6.17;;;5.23;;
24677;SDS011;12800;53.094;8.778;2023-04-24T11:45:10;5.23;;;4.73;;
24677;SDS011;12800;53.094;8.778;2023-04-24T11:47:37;5.90;;;4.43;;
24677;SDS011;12800;53.094;8.778;2023-04-24T11:50:04;9.23;;;5.28;;
24677;SDS011;12800;53.094;8.778;2023-04-24T11:52:33;6.07;;;5.30;;
24677;SDS011;12800;53.094;8.778;2023-04-24T11:55:03;10.67;;;7.77;;
24677;SDS011;12800;53.094;8.778;2023-04-24T11:57:31;15.60;;;11.43;;
24677;SDS011;12800;53.094;8.778;2023-04-24T12:00:02;7.17;;;6.47;;
24677;SDS011;12800;53.094;8.778;2023-04-24T12:02:30;6.20;;;4.87;;
24677;SDS011;12800;53.094;8.778;2023-04-24T12:04:56;7.73;;;5.30;;
24677;SDS011;12800;53.094;8.778;2023-04-24T12:07:22;6.10;;;5.40;;
24677;SDS011;12800;53.094;8.778;2023-04-24T12:09:59;5.40;;;4.90;;
24677;SDS011;12800;53.094;8.778;2023-04-24T12:12:26;7.80;;;5.73;;
24677;SDS011;12800;53.094;8.778;2023-04-24T12:14:53;6.00;;;5.50;;
24677;SDS011;12800;53.094;8.778;2023-04-24T12:17:26;7.10;;;5.50;;
24677;SDS011;12800;53.094;8.778;2023-04-24T12:19:57;5.90;;;5.40;;
24677;SDS011;12800;53.094;8.778;2023-04-24T12:22:25;5.80;;;5.23;;
24677;SDS011;12800;53.094;8.778;2023-04-24T12:25:01;5.97;;;4.97;;
24677;SDS011;12800;53.094;8.778;2023-04-24T12:27:30;7.13;;;6.23;;
24677;SDS011;12800;53.094;8.778;2023-04-24T12:29:58;6.03;;;5.20;;
24677;SDS011;12800;53.094;8.778;2023-04-24T12:32:25;5.60;;;5.10;;
24677;SDS011;12800;53.094;8.778;2023-04-24T12:34:51;5.97;;;5.38;;
24677;SDS011;12800;53.094;8.778;2023-04-24T12:37:18;5.50;;;5.10;;
24677;SDS011;12800;53.094;8.778;2023-04-24T12:39:44;5.60;;;5.10;;
24677;SDS011;12800;53.094;8.778;2023-04-24T12:42:27;5.47;;;4.97;;
24677;SDS011;12800;53.094;8.778;2023-04-24T12:45:01;5.50;;;5.00;;
24677;SDS011;12800;53.094;8.778;2023-04-24T12:47:30;6.23;;;5.07;;
24677;SDS011;12800;53.094;8.778;2023-04-24T12:49:57;6.10;;;5.50;;
24677;SDS011;12800;53.094;8.778;2023-04-24T12:52:23;7.07;;;5.57;;
24677;SDS011;12800;53.094;8.778;2023-04-24T12:54:52;6.30;;;5.70;;
24677;SDS011;12800;53.094;8.778;2023-04-24T12:57:19;5.97;;;5.47;;
24677;SDS011;12800;53.094;8.778;2023-04-24T12:59:45;8.00;;;5.07;;
24677;SDS011;12800;53.094;8.778;2023-04-24T13:02:11;4.37;;;3.97;;
24677;SDS011;12800;53.094;8.778;2023-04-24T13:04:37;3.83;;;2.83;;
24677;SDS011;12800;53.094;8.778;2023-04-24T13:07:03;2.47;;;2.27;;
24677;SDS011;12800;53.094;8.778;2023-04-24T13:09:28;3.47;;;2.57;;
24677;SDS011;12800;53.094;8.778;2023-04-24T13:11:54;6.27;;;4.43;;
24677;SDS011;12800;53.094;8.778;2023-04-24T13:14:21;6.60;;;5.23;;
24677;SDS011;12800;53.094;8.778;2023-04-24T13:16:47;9.53;;;6.53;;
24677;SDS011;12800;53.094;8.778;2023-04-24T13:19:13;9.43;;;7.07;;
24677;SDS011;12800;53.094;8.778;2023-04-24T13:21:38;8.53;;;6.53;;
24677;SDS011;12800;53.094;8.778;2023-04-24T13:24:04;9.63;;;6.17;;
24677;SDS011;12800;53.094;8.778;2023-04-24T13:26:32;11.20;;;6.03;;
24677;SDS011;12800;53.094;8.778;2023-04-24T13:28:58;10.40;;;6.10;;
24677;SDS011;12800;53.094;8.778;2023-04-24T13:31:24;27.20;;;19.23;;
24677;SDS011;12800;53.094;8.778;2023-04-24T13:33:49;8.27;;;5.73;;
24677;SDS011;12800;53.094;8.778;2023-04-24T13:36:15;7.03;;;4.97;;
24677;SDS011;12800;53.094;8.778;2023-04-24T13:38:42;8.03;;;4.70;;
24677;SDS011;12800;53.094;8.778;2023-04-24T13:41:09;9.97;;;4.70;;
24677;SDS011;12800;53.094;8.778;2023-04-24T13:43:35;7.50;;;4.27;;
24677;SDS011;12800;53.094;8.778;2023-04-24T13:46:01;9.00;;;4.93;;
24677;SDS011;12800;53.094;8.778;2023-04-24T13:48:28;9.70;;;4.63;;
24677;SDS011;12800;53.094;8.778;2023-04-24T13:50:54;7.00;;;4.27;;
24677;SDS011;12800;53.094;8.778;2023-04-24T13:53:20;6.40;;;4.83;;
24677;SDS011;12800;53.094;8.778;2023-04-24T13:55:46;5.30;;;4.33;;
24677;SDS011;12800;53.094;8.778;2023-04-24T13:58:11;4.90;;;4.07;;
24677;SDS011;12800;53.094;8.778;2023-04-24T14:00:37;8.63;;;5.50;;
24677;SDS011;12800;53.094;8.778;2023-04-24T14:03:03;6.57;;;4.70;;
24677;SDS011;12800;53.094;8.778;2023-04-24T14:05:28;9.67;;;4.67;;
24677;SDS011;12800;53.094;8.778;2023-04-24T14:07:54;6.47;;;3.73;;
24677;SDS011;12800;53.094;8.778;2023-04-24T14:10:20;5.53;;;4.00;;
24677;SDS011;12800;53.094;8.778;2023-04-24T14:12:45;7.37;;;3.50;;
24677;SDS011;12800;53.094;8.778;2023-04-24T14:15:11;8.40;;;3.90;;
24677;SDS011;12800;53.094;8.778;2023-04-24T14:17:38;6.10;;;3.50;;
24677;SDS011;12800;53.094;8.778;2023-04-24T14:20:04;5.87;;;3.07;;
24677;SDS011;12800;53.094;8.778;2023-04-24T14:22:30;9.57;;;3.47;;
24677;SDS011;12800;53.094;8.778;2023-04-24T14:24:56;5.83;;;2.83;;
24677;SDS011;12800;53.094;8.778;2023-04-24T14:27:22;5.13;;;2.60;;
24677;SDS011;12800;53.094;8.778;2023-04-24T14:29:49;8.13;;;3.77;;
24677;SDS011;12800;53.094;8.778;2023-04-24T14:32:14;37.60;;;24.43;;
24677;SDS011;12800;53.094;8.778;2023-04-24T14:34:40;10.13;;;4.40;;
24677;SDS011;12800;53.094;8.778;2023-04-24T14:37:06;5.90;;;3.50;;
24677;SDS011;12800;53.094;8.778;2023-04-24T14:39:32;6.13;;;3.00;;
24677;SDS011;12800;53.094;8.778;2023-04-24T14:41:58;5.47;;;3.00;;
24677;SDS011;12800;53.094;8.778;2023-04-24T14:44:24;5.17;;;2.80;;
24677;SDS011;12800;53.094;8.778;2023-04-24T14:46:49;5.27;;;2.93;;
24677;SDS011;12800;53.094;8.778;2023-04-24T14:49:15;7.00;;;3.27;;
24677;SDS011;12800;53.094;8.778;2023-04-24T14:51:41;5.93;;;2.47;;
24677;SDS011;12800;53.094;8.778;2023-04-24T14:54:07;5.97;;;2.43;;
24677;SDS011;12800;53.094;8.778;2023-04-24T14:56:36;3.53;;;2.50;;